罗盘
风向 的 风向 020°
风: 6 kt, 2 beaufort

添加一条跑道以查看侧风和逆风信息。

添置 跑道
0 6.000 12.000 18.000 24.000 30.000
FEW 2.200 ft
OVC 24.000 ft
METAR CYUL 161600Z 02006KT 12SM FEW022 OVC240 21/17 A2961 RMK SC2CS6 SLP030 DENSITY ALT 1300FT

METAR Ste Anne De Bell 1

该字段位于加拿大中。

这份报告是针对2022年5月16日 12:00, 当地时间在蒙特利尔皮埃尔·埃利奥特·特鲁多国际机场进行的。

机场观察

风向为020°,速度为6 kt。

可见度为19 km。

有几云在2.200 ft的高度 和 乌云密布在24.000 ft的高度。 破损或更高的上限为24.000 ft。

温度和风寒是21 °C。 露点为17 °C,相对湿度为78%。 海平面上的气压为1003 hPa (QNH)。

白天

今天,太阳从05:23升起,在20:20降落。 这适用于Ste Anne De Bell 1,世界夏令时可能有所不同。 当地时间与世界标准时间之间的时差为-4 小时。 夏令时目前正在进行中。

公司介绍

我们没有关于这个机场的公司信息。

体会

到Vliegles.nl去找飞行课程,跳伞和其他飞行体验。 浏览页面,了解Ste Anne De Bell 1附近所有可用的活动。 你也可以使用搜索功能来寻找你所在地附近的特定飞行课程、跳伞或其他飞行体验。

您会帮助我们保持Metar-Taf.com正常运行吗?
您的贡献有助于网站的进一步开发并支付费用。

没有更多广告

您是捐款5美元还是更多?然后,我们将永远不会再向您展示广告,这是我们永恒的感谢!
捐赠前先登录

乌云

2.200 ft FEW 几云
24.000 ft OVC 乌云密布

温度 & 天气

温度 21 °C
露点 17 °C
相对湿度 78%
Kp-index 1  

评论

SLP030海平面压力为1003,0 hPa (29,62 inHg)
SC2CS6 DENSITY ALT 1300FT

公司介绍

新增公司

下载我们的应用程序

在您的手机和平板电脑上轻松访问所有航空天气。
有许多网站上没有的功能,如离线支持和个人机场列表。

Studio Eveline

Benalmádena
España